createdAt,value
2024-01-06T00:02:19.248Z,1
2024-01-06T00:07:25.938Z,1
2024-01-06T00:12:31.476Z,0.9
2024-01-06T00:17:37.751Z,1
2024-01-06T00:22:44.002Z,1
2024-01-06T00:27:50.272Z,1
2024-01-06T00:32:56.541Z,1.1
2024-01-06T00:38:02.836Z,1
2024-01-06T00:43:09.070Z,1.1
2024-01-06T00:48:15.362Z,1.1
2024-01-06T00:53:21.621Z,1.1
2024-01-06T00:58:27.889Z,1.1
2024-01-06T01:03:34.202Z,1.1
2024-01-06T01:08:40.423Z,1.1
2024-01-06T01:13:46.708Z,1.1
2024-01-06T01:18:53.115Z,1.1
2024-01-06T01:23:59.235Z,1
2024-01-06T01:29:05.519Z,1
2024-01-06T01:34:11.765Z,1
2024-01-06T01:39:18.062Z,0.9
2024-01-06T01:44:24.324Z,1.1
2024-01-06T01:49:30.606Z,0.9
2024-01-06T01:54:36.863Z,0.9
2024-01-06T01:59:43.145Z,0.9
2024-01-06T02:04:49.391Z,0.9
2024-01-06T02:09:55.676Z,0.9
2024-01-06T02:15:01.929Z,0.9
2024-01-06T02:20:08.348Z,0.9
2024-01-06T02:25:14.766Z,0.9
2024-01-06T02:30:21.158Z,0.9
2024-01-06T02:35:27.579Z,1
2024-01-06T02:40:33.992Z,1.1
2024-01-06T02:45:40.395Z,1
2024-01-06T02:50:46.800Z,1
2024-01-06T02:55:53.228Z,1
2024-01-06T03:00:59.674Z,1.1
2024-01-06T03:06:06.061Z,1.1
2024-01-06T03:11:12.465Z,1.1
2024-01-06T03:16:18.880Z,1
2024-01-06T03:21:25.280Z,1.1
2024-01-06T03:26:31.948Z,1.1
2024-01-06T03:31:38.602Z,1.1
2024-01-06T03:36:45.243Z,1
2024-01-06T03:41:50.720Z,1
2024-01-06T03:46:56.923Z,1.1
2024-01-06T03:52:03.155Z,1.1
2024-01-06T03:57:09.358Z,1
2024-01-06T04:02:15.571Z,1
2024-01-06T04:07:21.786Z,1
2024-01-06T04:12:27.985Z,1.1
2024-01-06T04:17:34.416Z,1
2024-01-06T04:22:40.419Z,0.9
2024-01-06T04:27:46.695Z,0.8
2024-01-06T04:32:52.865Z,0.8
2024-01-06T04:37:59.108Z,0.9
2024-01-06T04:43:05.279Z,0.9
2024-01-06T04:48:11.487Z,0.9
2024-01-06T04:53:17.683Z,0.8
2024-01-06T04:58:23.901Z,0.9
2024-01-06T05:03:30.124Z,0.9
2024-01-06T05:08:36.323Z,0.9
2024-01-06T05:13:42.527Z,0.9
2024-01-06T05:18:48.761Z,0.9
2024-01-06T05:23:54.962Z,0.9
2024-01-06T05:29:01.178Z,0.9
2024-01-06T05:34:07.386Z,0.9
2024-01-06T05:39:13.602Z,0.9
2024-01-06T05:44:19.813Z,0.9
2024-01-06T05:49:26.101Z,0.9
2024-01-06T05:54:32.404Z,0.9
2024-01-06T05:59:38.658Z,0.9
2024-01-06T06:04:44.910Z,0.9
2024-01-06T06:09:51.192Z,0.9
2024-01-06T06:14:57.455Z,0.9
2024-01-06T06:20:03.728Z,0.9
2024-01-06T06:25:09.989Z,0.9
2024-01-06T06:30:16.259Z,1
2024-01-06T06:35:22.522Z,1
2024-01-06T06:40:28.788Z,1.1
2024-01-06T06:45:35.068Z,1.1
2024-01-06T06:50:41.334Z,1
2024-01-06T06:55:47.765Z,1
2024-01-06T07:00:54.166Z,1
2024-01-06T07:06:00.577Z,1
2024-01-06T07:11:06.996Z,1
2024-01-06T07:16:13.391Z,1
2024-01-06T07:21:19.907Z,1
2024-01-06T07:26:26.220Z,1
2024-01-06T07:31:32.627Z,1
2024-01-06T07:36:39.040Z,1
2024-01-06T07:41:45.440Z,1
2024-01-06T07:46:51.865Z,0.9
2024-01-06T07:51:58.271Z,0.9
2024-01-06T07:57:04.673Z,0.8
2024-01-06T08:02:11.401Z,0.7
2024-01-06T08:07:18.011Z,0.7
2024-01-06T08:12:24.682Z,0.6
2024-01-06T08:17:30.214Z,0.7
2024-01-06T08:22:36.361Z,0.7
2024-01-06T08:27:42.546Z,0.7
2024-01-06T08:32:48.803Z,0.7
2024-01-06T08:37:54.963Z,0.7
2024-01-06T08:43:01.178Z,0.7
2024-01-06T08:48:07.377Z,0.6
2024-01-06T08:53:13.603Z,0.7
2024-01-06T08:58:19.809Z,0.6
2024-01-06T09:03:26.032Z,0.6
2024-01-06T09:08:32.234Z,0.6
2024-01-06T09:13:38.460Z,0.6
2024-01-06T09:18:44.681Z,0.6
2024-01-06T09:23:50.892Z,0.6
2024-01-06T09:28:57.087Z,0.6
2024-01-06T09:34:03.296Z,0.6
2024-01-06T09:39:09.501Z,0.7
2024-01-06T09:44:15.757Z,0.5
2024-01-06T09:49:21.954Z,0.4
2024-01-06T09:54:28.171Z,0.4
2024-01-06T09:59:34.383Z,0.4
2024-01-06T10:04:40.681Z,0.4
2024-01-06T10:09:46.853Z,0.5
2024-01-06T10:14:53.033Z,0.5
2024-01-06T10:19:59.221Z,0.5
2024-01-06T10:25:05.516Z,0.4
2024-01-06T10:30:11.838Z,0.3
2024-01-06T10:35:18.058Z,0.4
2024-01-06T10:40:24.332Z,0.4
2024-01-06T10:45:30.575Z,0.4
2024-01-06T10:50:36.867Z,0.3
2024-01-06T10:55:43.125Z,0.3
2024-01-06T11:00:49.408Z,0.5
2024-01-06T11:05:55.670Z,0.4
2024-01-06T11:11:02.009Z,0.5
2024-01-06T11:16:08.217Z,0.3
2024-01-06T11:21:14.531Z,0.4
2024-01-06T11:26:20.751Z,0.4
2024-01-06T11:31:27.151Z,0.5
2024-01-06T11:36:33.571Z,0.4
2024-01-06T11:41:39.983Z,0.4
2024-01-06T11:46:46.407Z,0.4
2024-01-06T11:51:52.798Z,0.3
2024-01-06T11:56:59.204Z,0.3
2024-01-06T12:02:05.641Z,0.3
2024-01-06T12:07:12.059Z,0.4
2024-01-06T12:12:18.784Z,0.4
2024-01-06T12:17:24.907Z,0.3
2024-01-06T12:22:31.308Z,0.3
2024-01-06T12:27:37.703Z,0.3
2024-01-06T12:32:44.140Z,0.2
2024-01-06T12:37:50.771Z,0.2
2024-01-06T12:42:56.329Z,0.2
2024-01-06T12:48:02.585Z,0.3
2024-01-06T12:53:08.959Z,0.2
2024-01-06T12:58:15.123Z,0.1
2024-01-06T13:03:21.390Z,0
2024-01-06T13:08:27.671Z,0
2024-01-06T13:13:34.004Z,-0.1
2024-01-06T13:18:40.249Z,-0.1
2024-01-06T13:23:46.566Z,-0.1
2024-01-06T13:28:52.801Z,-0.1
2024-01-06T13:33:59.083Z,-0.2
2024-01-06T13:39:05.359Z,-0.2
2024-01-06T13:44:11.631Z,-0.2
2024-01-06T13:49:17.889Z,-0.3
2024-01-06T13:54:24.178Z,-0.3
2024-01-06T13:59:30.450Z,-0.4
2024-01-06T14:04:36.732Z,-0.4
2024-01-06T14:09:43.001Z,-0.4
2024-01-06T14:14:49.268Z,-0.4
2024-01-06T14:19:55.545Z,-0.4
2024-01-06T14:25:01.827Z,-0.4
2024-01-06T14:30:08.111Z,-0.4
2024-01-06T14:35:14.384Z,-0.5
2024-01-06T14:40:20.651Z,-0.6
2024-01-06T14:45:26.920Z,-0.6
2024-01-06T14:50:33.358Z,-0.4
2024-01-06T14:55:39.760Z,-0.5
2024-01-06T15:00:46.190Z,-0.6
2024-01-06T15:05:52.598Z,-0.6
2024-01-06T15:10:59.048Z,-0.6
2024-01-06T15:16:05.434Z,-0.5
2024-01-06T15:21:11.840Z,-0.6
2024-01-06T15:26:18.278Z,-0.6
2024-01-06T15:31:24.696Z,-0.6
2024-01-06T15:36:31.164Z,-0.7
2024-01-06T15:41:37.515Z,-0.7
2024-01-06T15:46:43.946Z,-0.7
2024-01-06T15:51:50.368Z,-0.7
2024-01-06T15:56:57.049Z,-0.8
2024-01-06T16:02:03.715Z,-0.8
2024-01-06T16:07:10.334Z,-0.9
2024-01-06T16:12:15.826Z,-0.9
2024-01-06T16:17:22.176Z,-0.9
2024-01-06T16:22:28.326Z,-0.9
2024-01-06T16:27:34.482Z,-0.9
2024-01-06T16:32:40.704Z,-1
2024-01-06T16:37:46.914Z,-1.1
2024-01-06T16:47:59.342Z,-1.1
2024-01-06T16:53:05.631Z,-1
2024-01-06T16:58:11.800Z,-1.1
2024-01-06T17:03:18.017Z,-1
2024-01-06T17:13:30.465Z,-1.1
2024-01-06T17:18:36.640Z,-1.2
2024-01-06T17:23:42.873Z,-1.2
2024-01-06T17:28:49.099Z,-1.2
2024-01-06T17:33:55.376Z,-1.2
2024-01-06T17:39:01.520Z,-1.2
2024-01-06T17:44:07.765Z,-1.3
2024-01-06T17:49:14.008Z,-1.2
2024-01-06T17:54:20.310Z,-1.3
2024-01-06T17:59:26.427Z,-1.3
2024-01-06T18:04:32.726Z,-1.3
2024-01-06T18:09:38.854Z,-1.3
2024-01-06T18:14:45.074Z,-1.3
2024-01-06T18:19:51.370Z,-1.3
2024-01-06T18:24:57.646Z,-1.3
2024-01-06T18:30:03.918Z,-1.3
2024-01-06T18:35:10.238Z,-1.3
2024-01-06T18:40:16.519Z,-1.3
2024-01-06T18:45:22.799Z,-1.3
2024-01-06T18:50:29.069Z,-1.3
2024-01-06T18:55:35.450Z,-1.4
2024-01-06T19:00:41.620Z,-1.4
2024-01-06T19:05:47.899Z,-1.4
2024-01-06T19:10:54.168Z,-1.4
2024-01-06T19:16:00.580Z,-1.4
2024-01-06T19:21:06.718Z,-1.4
2024-01-06T19:26:13.155Z,-1.4
2024-01-06T19:31:19.573Z,-1.4
2024-01-06T19:36:25.977Z,-1.5
2024-01-06T19:41:32.404Z,-1.5
2024-01-06T19:46:38.811Z,-1.5
2024-01-06T19:51:45.234Z,-1.6
2024-01-06T19:56:51.655Z,-1.5
2024-01-06T20:01:58.067Z,-1.6
2024-01-06T20:07:04.502Z,-1.6
2024-01-06T20:12:10.923Z,-1.5
2024-01-06T20:17:17.357Z,-1.6
2024-01-06T20:22:23.763Z,-1.7
2024-01-06T20:27:30.299Z,-1.7
2024-01-06T20:32:36.831Z,-1.6
2024-01-06T20:37:43.490Z,-1.6
2024-01-06T20:42:50.202Z,-1.7
2024-01-06T20:47:55.707Z,-1.7
2024-01-06T20:53:01.992Z,-1.7
2024-01-06T20:58:08.288Z,-1.8
2024-01-06T21:03:14.576Z,-1.8
2024-01-06T21:08:20.801Z,-1.8
2024-01-06T21:13:27.171Z,-1.8
2024-01-06T21:18:33.355Z,-1.9
2024-01-06T21:23:39.614Z,-1.9
2024-01-06T21:28:45.912Z,-1.9
2024-01-06T21:33:52.167Z,-2
2024-01-06T21:38:58.441Z,-2
2024-01-06T21:44:04.724Z,-2
2024-01-06T21:49:11.001Z,-2
2024-01-06T21:54:17.313Z,-2.1
2024-01-06T21:59:23.575Z,-2.1
2024-01-06T22:04:29.833Z,-2.1
2024-01-06T22:09:36.116Z,-2.1
2024-01-06T22:14:42.407Z,-2.2
2024-01-06T22:19:48.654Z,-2.1
2024-01-06T22:24:54.956Z,-2.2
2024-01-06T22:30:01.223Z,-2.2
2024-01-06T22:35:07.498Z,-2.2
2024-01-06T22:40:13.794Z,-2.2
2024-01-06T22:45:20.060Z,-2.2
2024-01-06T22:50:26.330Z,-2.3
2024-01-06T22:55:32.757Z,-2.3
2024-01-06T23:00:39.157Z,-2.3
2024-01-06T23:05:45.570Z,-2.4
2024-01-06T23:10:52.104Z,-2.4
2024-01-06T23:15:58.418Z,-2.4
2024-01-06T23:21:04.841Z,-2.4
2024-01-06T23:26:11.254Z,-2.5
2024-01-06T23:31:17.686Z,-2.5
2024-01-06T23:36:24.085Z,-2.6
2024-01-06T23:41:30.511Z,-2.5
2024-01-06T23:46:36.930Z,-2.5
2024-01-06T23:51:43.454Z,-2.5
2024-01-06T23:56:49.904Z,-2.4
